Time;durP1;ratioP1;P1;durP2;ratioP2;P2;SDS_P1;SDS_P2;PMS_P1;PMS_P2;Temp;Humidity;BMP_temperature;BMP_pressure;BME280_temperature;BME280_humidity;BME280_pressure;Samples;Min_cycle;Max_cycle;Signal;HPM_P1;HPM_P2
2022/03/09 00:01:58;;;;;;;13.23;8.03;;;;;;;-1.79;73.72;98755.88;5069078;28;20243;-72
2022/03/09 00:04:24;;;;;;;12.77;7.90;;;;;;;-1.66;72.70;98757.44;5069014;28;20244;-72
2022/03/09 00:06:52;;;;;;;13.63;8.30;;;;;;;-1.70;72.64;98760.94;5065509;28;20216;-73
2022/03/09 00:09:19;;;;;;;11.87;8.00;;;;;;;-1.68;73.25;98746.22;5066304;28;20581;-73
2022/03/09 00:11:45;;;;;;;13.43;8.20;;;;;;;-1.67;73.06;98753.16;5068049;28;20216;-73
2022/03/09 00:14:12;;;;;;;11.93;7.47;;;;;;;-1.63;73.08;98754.81;5068535;28;20239;-72
2022/03/09 00:16:38;;;;;;;14.37;7.67;;;;;;;-1.55;72.66;98758.16;5065369;28;20255;-73
2022/03/09 00:19:05;;;;;;;11.90;7.57;;;;;;;-1.54;72.50;98759.91;5057927;28;20217;-73
2022/03/09 00:21:32;;;;;;;12.87;7.60;;;;;;;-1.53;73.01;98759.03;5067900;28;20215;-72
2022/03/09 00:23:59;;;;;;;12.33;7.00;;;;;;;-1.54;72.97;98765.09;5067739;28;20228;-72
2022/03/09 00:26:26;;;;;;;12.33;7.30;;;;;;;-1.49;72.02;98760.69;5065785;28;20226;-72
2022/03/09 00:28:52;;;;;;;9.47;7.27;;;;;;;-1.61;72.92;98758.25;5064792;28;20220;-72
2022/03/09 00:31:19;;;;;;;10.10;7.67;;;;;;;-1.68;72.96;98764.38;5065502;28;20218;-72
2022/03/09 00:33:45;;;;;;;10.63;7.07;;;;;;;-1.70;72.88;98767.00;5066458;28;20609;-72
2022/03/09 00:36:12;;;;;;;14.87;7.80;;;;;;;-1.73;73.03;98772.19;5066283;28;20215;-72
2022/03/09 00:38:39;;;;;;;12.50;7.83;;;;;;;-1.78;72.72;98773.13;5064260;28;20224;-72
2022/03/09 00:41:06;;;;;;;12.40;7.23;;;;;;;-1.78;72.78;98775.72;5067720;28;20220;-72
2022/03/09 00:43:33;;;;;;;13.47;7.63;;;;;;;-1.81;73.25;98779.19;5067810;28;20234;-72
2022/03/09 00:45:59;;;;;;;13.10;7.43;;;;;;;-1.83;73.38;98769.72;5066282;28;20566;-72
2022/03/09 00:48:26;;;;;;;13.80;7.27;;;;;;;-1.88;74.03;98776.69;5062674;28;20239;-71
2022/03/09 00:50:52;;;;;;;11.87;7.83;;;;;;;-1.92;74.42;98765.50;5067490;28;20215;-72
2022/03/09 00:53:19;;;;;;;9.90;7.43;;;;;;;-1.93;75.05;98762.91;5067878;28;20247;-72
2022/03/09 00:55:45;;;;;;;12.93;7.67;;;;;;;-1.94;74.65;98771.56;5066548;28;20235;-72
2022/03/09 00:58:13;;;;;;;12.73;7.67;;;;;;;-1.97;74.58;98766.44;5064033;28;20235;-72
2022/03/09 01:00:40;;;;;;;13.07;7.23;;;;;;;-1.98;73.96;98769.88;5066906;28;20244;-72
2022/03/09 01:03:06;;;;;;;11.87;8.20;;;;;;;-2.06;72.78;98763.91;5067918;28;20211;-72
2022/03/09 01:05:32;;;;;;;11.47;7.63;;;;;;;-2.15;72.12;98769.19;5066347;28;20229;-72
2022/03/09 01:07:59;;;;;;;10.83;7.70;;;;;;;-2.26;71.67;98766.66;5063945;28;20567;-72
2022/03/09 01:10:26;;;;;;;12.07;7.70;;;;;;;-2.38;71.82;98768.53;5066260;28;20221;-72
2022/03/09 01:12:52;;;;;;;10.07;7.00;;;;;;;-2.43;72.37;98770.28;5067352;28;20235;-72
2022/03/09 01:15:20;;;;;;;11.13;7.73;;;;;;;-2.54;73.69;98777.25;5065433;28;20226;-72
2022/03/09 01:17:47;;;;;;;10.27;7.87;;;;;;;-2.58;74.55;98770.41;5063473;28;20228;-72
2022/03/09 01:20:14;;;;;;;12.23;8.10;;;;;;;-2.68;76.23;98763.59;5065853;28;20576;-71
2022/03/09 01:22:40;;;;;;;12.73;7.10;;;;;;;-2.65;76.04;98758.38;5066737;28;20215;-72
2022/03/09 01:25:07;;;;;;;11.90;8.50;;;;;;;-2.70;76.83;98760.16;5067147;28;20242;-72
2022/03/09 01:27:34;;;;;;;11.30;7.53;;;;;;;-2.83;77.47;98750.75;5063430;28;20304;-71
2022/03/09 01:30:01;;;;;;;13.07;8.67;;;;;;;-2.85;76.93;98755.06;5065158;28;20223;-71
2022/03/09 01:32:28;;;;;;;12.40;8.17;;;;;;;-2.94;76.84;98745.66;5067162;28;20214;-72
2022/03/09 01:34:55;;;;;;;12.70;7.90;;;;;;;-2.95;76.71;98748.28;5067236;28;20238;-71
2022/03/09 01:37:22;;;;;;;10.83;7.00;;;;;;;-2.92;77.10;98753.41;5056989;28;20677;-72
2022/03/09 01:39:48;;;;;;;10.80;6.93;;;;;;;-2.91;77.43;98755.13;5063040;28;20208;-72
2022/03/09 01:42:15;;;;;;;10.73;7.00;;;;;;;-2.89;77.81;98759.41;5067037;28;20222;-73
2022/03/09 01:44:41;;;;;;;11.93;7.17;;;;;;;-2.85;77.99;98749.91;5066971;28;20219;-72
2022/03/09 01:47:08;;;;;;;13.63;7.60;;;;;;;-2.79;79.44;98760.22;5062696;28;20682;-72
2022/03/09 01:49:36;;;;;;;11.43;7.63;;;;;;;-2.65;79.69;98768.72;5064060;28;20211;-72
2022/03/09 01:52:04;;;;;;;11.63;7.90;;;;;;;-2.56;79.84;98759.19;5066695;28;20215;-72
2022/03/09 01:54:31;;;;;;;14.20;8.30;;;;;;;-2.55;81.35;98763.50;5066919;28;20239;-72
2022/03/09 01:56:59;;;;;;;14.63;8.90;;;;;;;-2.53;80.92;98756.56;5063403;28;20208;-72
2022/03/09 01:59:26;;;;;;;13.90;8.27;;;;;;;-2.51;80.71;98751.38;5061585;28;20217;-73
2022/03/09 02:01:53;;;;;;;14.77;8.93;;;;;;;-2.50;80.36;98745.34;5066002;28;20250;-72
2022/03/09 02:04:20;;;;;;;15.13;7.97;;;;;;;-2.44;79.71;98740.94;5065652;28;20223;-72
2022/03/09 02:06:48;;;;;;;13.37;8.23;;;;;;;-2.42;79.18;98730.59;5060955;28;20682;-71
2022/03/09 02:11:58;;;;;;;14.30;8.13;;;;;;;-2.32;78.56;98737.41;5066471;28;20214;-72
2022/03/09 02:14:30;;;;;;;13.93;8.47;;;;;;;-2.33;79.58;98728.78;5065221;28;20258;-72
2022/03/09 02:16:57;;;;;;;12.20;8.03;;;;;;;-2.35;79.92;98727.06;5063027;28;20235;-72
2022/03/09 02:19:24;;;;;;;14.73;7.80;;;;;;;-2.40;80.76;98726.28;5059034;28;20207;-73
2022/03/09 02:21:58;;;;;;;12.57;8.20;;;;;;;-2.36;81.45;98730.53;5066359;28;20213;-73
2022/03/09 02:24:26;;;;;;;15.10;8.60;;;;;;;-2.35;81.62;98733.13;5064170;28;20212;-73
2022/03/09 02:26:52;;;;;;;12.43;7.73;;;;;;;-2.43;82.13;98729.75;5063147;28;20217;-72
2022/03/09 02:29:19;;;;;;;12.80;8.77;;;;;;;-2.37;81.60;98734.00;5066256;28;20211;-73
2022/03/09 02:31:46;;;;;;;12.47;7.73;;;;;;;-2.47;82.16;98728.03;5065484;28;20222;-72
2022/03/09 02:34:12;;;;;;;12.23;8.33;;;;;;;-2.44;81.81;98727.16;5064782;28;20250;-72
2022/03/09 02:36:38;;;;;;;14.97;8.80;;;;;;;-2.44;81.71;98732.34;5066890;28;20219;-72
2022/03/09 02:39:05;;;;;;;13.77;8.97;;;;;;;-2.49;82.44;98731.53;5070587;28;20585;-71
2022/03/09 02:41:33;;;;;;;16.20;10.00;;;;;;;-2.54;82.32;98726.38;5070620;28;20222;-72
2022/03/09 02:44:00;;;;;;;13.83;8.67;;;;;;;-2.64;82.76;98721.31;5068119;28;20669;-72
2022/03/09 02:46:27;;;;;;;15.97;8.47;;;;;;;-2.71;84.06;98720.50;5066317;28;20262;-71
2022/03/09 02:48:53;;;;;;;11.83;8.00;;;;;;;-2.72;83.97;98730.84;5070109;28;20208;-72
2022/03/09 02:51:20;;;;;;;15.80;8.57;;;;;;;-2.75;83.62;98730.88;5070055;28;20581;-71
2022/03/09 02:53:48;;;;;;;12.97;8.80;;;;;;;-2.90;84.24;98730.97;5068707;28;20239;-71
2022/03/09 02:56:15;;;;;;;14.37;8.47;;;;;;;-2.95;82.64;98728.41;5066219;28;20219;-72
2022/03/09 02:58:43;;;;;;;11.87;8.20;;;;;;;-3.02;81.70;98725.88;5067739;28;20218;-72
2022/03/09 03:01:10;;;;;;;11.67;7.87;;;;;;;-3.09;81.74;98719.03;5069983;28;20687;-72
2022/03/09 03:03:37;;;;;;;14.30;8.80;;;;;;;-3.14;82.20;98721.66;5068353;28;20589;-72
2022/03/09 03:06:03;;;;;;;14.77;8.87;;;;;;;-3.20;83.16;98720.81;5066136;28;20692;-72
2022/03/09 03:08:30;;;;;;;14.87;8.20;;;;;;;-3.29;84.09;98720.88;5068994;28;20703;-72
2022/03/09 03:10:57;;;;;;;16.07;8.70;;;;;;;-3.40;85.22;98728.72;5069624;28;20680;-72
2022/03/09 03:13:23;;;;;;;11.97;8.10;;;;;;;-3.26;84.46;98733.78;5068849;28;20235;-72
2022/03/09 03:15:51;;;;;;;14.73;8.80;;;;;;;-3.12;83.86;98735.41;5051449;28;20217;-72
2022/03/09 03:18:17;;;;;;;14.77;8.73;;;;;;;-3.14;84.18;98738.88;5067588;28;20215;-72
2022/03/09 03:20:44;;;;;;;13.20;7.77;;;;;;;-3.25;85.30;98733.78;5069805;28;20219;-72
2022/03/09 03:23:10;;;;;;;11.97;8.03;;;;;;;-3.31;86.81;98738.97;5068851;28;20218;-72
2022/03/09 03:25:37;;;;;;;12.23;7.97;;;;;;;-3.34;87.53;98741.59;5064158;28;20225;-72
2022/03/09 03:28:04;;;;;;;12.83;8.27;;;;;;;-3.38;88.03;98742.47;5068041;28;20216;-71
2022/03/09 03:30:30;;;;;;;13.93;7.97;;;;;;;-3.35;87.61;98741.59;5069529;28;20218;-71
2022/03/09 03:32:58;;;;;;;12.90;8.27;;;;;;;-3.40;87.66;98751.09;5069354;28;20225;-71
2022/03/09 03:35:24;;;;;;;17.63;8.63;;;;;;;-3.41;87.51;98746.78;5065870;28;20216;-71
2022/03/09 03:37:51;;;;;;;10.63;7.43;;;;;;;-3.37;87.54;98753.69;5067098;28;20223;-72
2022/03/09 03:40:17;;;;;;;16.30;8.97;;;;;;;-3.35;87.78;98741.59;5069019;28;20216;-71
2022/03/09 03:42:44;;;;;;;13.37;8.23;;;;;;;-3.33;87.70;98745.91;5069305;28;20585;-71
2022/03/09 03:45:10;;;;;;;14.47;8.50;;;;;;;-3.37;87.96;98745.94;5065610;28;20212;-71
2022/03/09 03:47:37;;;;;;;12.87;8.13;;;;;;;-3.41;88.76;98746.78;5066117;28;20216;-71
2022/03/09 03:50:06;;;;;;;17.57;8.77;;;;;;;-3.39;88.51;98750.22;5067141;28;20230;-72
2022/03/09 03:52:32;;;;;;;12.47;8.63;;;;;;;-3.42;89.13;98748.50;5069243;28;20211;-72
2022/03/09 03:54:59;;;;;;;14.43;9.00;;;;;;;-3.31;88.73;98756.22;5065623;28;20243;-72
2022/03/09 03:57:25;;;;;;;14.47;9.13;;;;;;;-3.24;88.64;98760.50;5065933;28;20219;-72
2022/03/09 03:59:51;;;;;;;14.77;8.40;;;;;;;-3.21;88.51;98761.34;5068977;28;20215;-72
2022/03/09 04:02:18;;;;;;;12.30;8.40;;;;;;;-3.32;89.53;98767.41;5068664;28;20752;-72
2022/03/09 04:04:44;;;;;;;13.70;8.43;;;;;;;-3.36;90.58;98770.91;5066176;28;20215;-72
2022/03/09 04:07:12;;;;;;;12.83;8.17;;;;;;;-3.26;90.13;98765.66;5065352;28;20212;-72
2022/03/09 04:09:39;;;;;;;13.63;8.00;;;;;;;-3.27;89.94;98770.84;5064109;28;20216;-72
2022/03/09 04:12:06;;;;;;;13.23;8.57;;;;;;;-3.20;89.67;98768.22;5057081;28;20215;-72
2022/03/09 04:14:32;;;;;;;12.53;8.10;;;;;;;-3.22;89.64;98769.09;5066017;28;20239;-72
2022/03/09 04:16:58;;;;;;;15.43;8.47;;;;;;;-3.19;89.50;98776.84;5063498;28;20615;-71
2022/03/09 04:19:25;;;;;;;13.47;8.17;;;;;;;-3.10;89.16;98784.53;5055694;28;20218;-71
2022/03/09 04:21:52;;;;;;;15.90;9.00;;;;;;;-3.12;88.62;98775.94;5068715;28;20215;-72
2022/03/09 04:24:20;;;;;;;12.93;8.70;;;;;;;-3.13;88.55;98777.66;5066573;28;20242;-71
2022/03/09 04:26:46;;;;;;;13.53;8.60;;;;;;;-3.19;89.21;98771.69;5064621;28;20223;-72
2022/03/09 04:29:13;;;;;;;14.37;8.60;;;;;;;-3.23;89.20;98767.38;5066926;28;20215;-71
2022/03/09 04:31:39;;;;;;;13.93;8.73;;;;;;;-3.22;88.94;98763.91;5055998;28;20216;-71
2022/03/09 04:34:06;;;;;;;14.23;9.23;;;;;;;-3.23;89.52;98762.22;5066733;28;20238;-72
2022/03/09 04:36:33;;;;;;;13.43;9.07;;;;;;;-3.19;89.16;98758.75;5064538;28;20231;-72
2022/03/09 04:38:59;;;;;;;13.57;8.77;;;;;;;-3.27;89.79;98755.31;5067488;28;20218;-71
2022/03/09 04:41:27;;;;;;;15.33;9.10;;;;;;;-3.24;89.71;98757.91;5068121;28;20280;-72
2022/03/09 04:43:54;;;;;;;14.33;9.17;;;;;;;-3.23;89.64;98755.31;5065154;28;20578;-73
2022/03/09 04:46:20;;;;;;;15.43;9.07;;;;;;;-3.22;90.11;98748.41;5064040;28;20223;-73
2022/03/09 04:48:48;;;;;;;15.00;8.77;;;;;;;-3.18;90.21;98745.78;5066673;28;20222;-73
2022/03/09 04:51:15;;;;;;;12.37;8.53;;;;;;;-3.11;89.69;98752.66;5067951;28;20301;-73
2022/03/09 04:53:42;;;;;;;18.27;9.87;;;;;;;-3.06;90.10;98750.06;5066946;28;20237;-73
2022/03/09 04:56:09;;;;;;;14.03;9.40;;;;;;;-3.05;89.47;98749.19;5063965;28;20208;-73
2022/03/09 04:58:37;;;;;;;15.13;9.30;;;;;;;-3.02;88.99;98754.31;5066673;28;20220;-72
2022/03/09 05:01:03;;;;;;;14.47;9.10;;;;;;;-3.02;88.75;98756.91;5067764;28;20605;-71
2022/03/09 05:03:30;;;;;;;13.17;8.33;;;;;;;-3.03;88.54;98771.56;5066673;28;20208;-72
2022/03/09 05:05:57;;;;;;;13.67;8.73;;;;;;;-3.09;89.15;98765.56;5063791;28;20224;-72
2022/03/09 05:08:23;;;;;;;15.20;8.80;;;;;;;-3.19;89.82;98763.91;5064340;28;20220;-72
2022/03/09 05:10:50;;;;;;;13.90;8.97;;;;;;;-3.21;89.61;98766.50;5067445;28;20211;-72
2022/03/09 05:13:16;;;;;;;14.27;9.40;;;;;;;-3.35;90.01;98767.44;5067042;28;20218;-72
2022/03/09 05:15:44;;;;;;;12.20;8.43;;;;;;;-3.41;88.49;98762.28;5063520;28;20246;-72
2022/03/09 05:18:11;;;;;;;14.47;8.77;;;;;;;-3.69;88.32;98769.28;5065408;28;20208;-72
2022/03/09 05:20:37;;;;;;;16.57;8.93;;;;;;;-3.73;87.44;98774.47;5067507;28;20573;-72
2022/03/09 05:23:04;;;;;;;16.03;9.40;;;;;;;-3.84;86.79;98776.22;5067519;28;20215;-72
2022/03/09 05:25:31;;;;;;;15.97;10.17;;;;;;;-3.96;87.13;98774.56;5057164;28;20681;-71
2022/03/09 05:27:57;;;;;;;13.80;8.87;;;;;;;-4.10;87.66;98780.59;5064734;28;20208;-72
2022/03/09 05:30:24;;;;;;;15.67;10.37;;;;;;;-4.15;88.66;98784.91;5067385;28;20223;-72
2022/03/09 05:32:52;;;;;;;15.90;9.13;;;;;;;-4.22;88.47;98778.88;5067286;28;20215;-72
2022/03/09 05:35:18;;;;;;;12.30;8.37;;;;;;;-4.21;87.09;98782.31;5061525;28;20713;-73
2022/03/09 05:37:45;;;;;;;13.17;8.63;;;;;;;-4.31;86.94;98786.63;5064338;28;20216;-73
2022/03/09 05:40:13;;;;;;;15.67;8.90;;;;;;;-4.49;87.94;98793.50;5067172;28;20215;-72
2022/03/09 05:42:40;;;;;;;14.83;9.07;;;;;;;-4.67;89.10;98799.53;5067101;28;20219;-72
2022/03/09 05:45:08;;;;;;;14.03;8.30;;;;;;;-4.82;89.85;98808.97;5054424;28;20220;-72
2022/03/09 05:47:34;;;;;;;14.03;8.50;;;;;;;-4.94;90.74;98816.66;5061770;28;20215;-72
2022/03/09 05:50:03;;;;;;;12.00;8.23;;;;;;;-4.98;91.42;98813.22;5067100;28;20219;-71
2022/03/09 05:52:30;;;;;;;13.43;8.53;;;;;;;-4.99;93.54;98810.63;5067092;28;20563;-73
2022/03/09 05:54:56;;;;;;;14.40;8.10;;;;;;;-4.84;94.75;98815.84;5063664;28;20322;-71
2022/03/09 05:57:23;;;;;;;12.57;7.73;;;;;;;-4.79;95.80;98814.09;5064069;28;20568;-72
2022/03/09 05:59:50;;;;;;;11.67;7.43;;;;;;;-4.68;95.51;98812.41;5065504;28;20216;-73
2022/03/09 06:02:17;;;;;;;13.70;8.27;;;;;;;-4.60;95.94;98821.00;5066408;28;20239;-71
2022/03/09 06:04:45;;;;;;;14.27;8.23;;;;;;;-4.58;96.48;98809.84;5064156;28;20303;-72
2022/03/09 06:07:12;;;;;;;14.30;8.03;;;;;;;-4.47;96.56;98820.19;5063792;28;20243;-71
2022/03/09 06:09:39;;;;;;;12.67;8.17;;;;;;;-4.36;96.09;98815.84;5066283;28;20215;-73
2022/03/09 06:12:06;;;;;;;12.80;8.33;;;;;;;-4.24;95.18;98819.31;5066499;28;20222;-72
2022/03/09 06:14:33;;;;;;;11.97;8.10;;;;;;;-4.07;93.21;98819.28;5063752;28;20243;-71
2022/03/09 06:16:59;;;;;;;12.40;8.00;;;;;;;-4.09;92.42;98826.19;5063484;28;20241;-71
2022/03/09 06:19:26;;;;;;;13.10;8.10;;;;;;;-4.19;93.24;98827.03;5060446;28;20207;-71
2022/03/09 06:21:53;;;;;;;14.97;8.03;;;;;;;-4.17;94.30;98833.09;5066474;28;20286;-71
2022/03/09 06:24:21;;;;;;;14.87;8.23;;;;;;;-4.08;94.46;98827.91;5064423;28;20219;-71
2022/03/09 06:26:47;;;;;;;13.07;8.60;;;;;;;-3.98;94.21;98833.03;5061274;28;20212;-71
2022/03/09 06:29:14;;;;;;;13.23;8.53;;;;;;;-3.90;94.54;98830.47;5066557;28;20218;-71
2022/03/09 06:31:42;;;;;;;15.27;8.33;;;;;;;-3.84;94.02;98835.63;5066524;28;20211;-72
2022/03/09 06:34:09;;;;;;;15.77;8.43;;;;;;;-3.75;94.14;98843.34;5064070;28;20245;-72
2022/03/09 06:36:35;;;;;;;11.77;8.00;;;;;;;-3.63;93.97;98838.16;5062740;28;20220;-71
2022/03/09 06:39:01;;;;;;;12.60;8.47;;;;;;;-3.50;93.64;98840.69;5066455;28;20217;-72
2022/03/09 06:41:29;;;;;;;12.00;8.37;;;;;;;-3.45;93.87;98843.25;5066438;28;20211;-72
2022/03/09 06:43:56;;;;;;;12.20;7.40;;;;;;;-3.35;93.71;98847.53;5064432;28;20208;-71
2022/03/09 06:46:22;;;;;;;13.93;8.40;;;;;;;-3.22;94.05;98844.94;5062520;28;20562;-72
2022/03/09 06:48:49;;;;;;;10.63;7.20;;;;;;;-3.11;93.61;98847.47;5065700;28;20288;-72
2022/03/09 06:51:15;;;;;;;14.50;8.40;;;;;;;-2.89;92.74;98856.84;5059400;28;20230;-71
2022/03/09 06:53:42;;;;;;;12.20;7.67;;;;;;;-2.78;91.88;98848.16;5053148;28;20213;-71
2022/03/09 06:56:08;;;;;;;10.73;7.33;;;;;;;-2.67;91.83;98859.31;5061141;28;20665;-72
2022/03/09 06:58:36;;;;;;;11.83;7.33;;;;;;;-2.54;91.71;98849.72;5064034;28;20232;-72
2022/03/09 07:01:03;;;;;;;10.73;7.47;;;;;;;-2.36;90.78;98859.94;5054642;28;20584;-71
2022/03/09 07:03:30;;;;;;;11.60;8.13;;;;;;;-2.21;90.64;98865.88;5063968;28;20220;-71
2022/03/09 07:05:57;;;;;;;13.57;8.37;;;;;;;-2.01;89.93;98868.31;5061081;28;20308;-71
2022/03/09 07:08:23;;;;;;;12.87;8.70;;;;;;;-1.90;89.50;98866.50;5063673;28;20240;-72
2022/03/09 07:10:50;;;;;;;13.40;8.70;;;;;;;-1.90;90.47;98869.09;5064829;28;20215;-72
2022/03/09 07:13:16;;;;;;;16.00;9.47;;;;;;;-1.79;88.94;98870.72;5064006;28;20229;-72
2022/03/09 07:15:44;;;;;;;15.47;9.77;;;;;;;-1.64;89.19;98877.50;5060871;28;20236;-73
2022/03/09 07:18:10;;;;;;;20.03;10.53;;;;;;;-1.59;88.56;98873.13;5062668;28;20212;-75
2022/03/09 07:20:37;;;;;;;15.63;10.67;;;;;;;-1.47;86.63;98873.00;5063743;28;20276;-72
2022/03/09 07:23:03;;;;;;;15.93;9.70;;;;;;;-1.40;85.71;98882.44;5067881;28;20222;-72
2022/03/09 07:25:30;;;;;;;17.67;9.63;;;;;;;-1.30;85.12;98881.47;5064627;28;20585;-73
2022/03/09 07:27:56;;;;;;;14.20;9.80;;;;;;;-1.19;84.50;98883.06;5050126;28;20225;-72
2022/03/09 07:30:23;;;;;;;18.97;10.57;;;;;;;-0.98;84.00;98889.75;5068319;28;20212;-72
2022/03/09 07:32:51;;;;;;;14.57;10.07;;;;;;;-0.66;81.11;98877.22;5068207;28;20562;-72
2022/03/09 07:35:18;;;;;;;15.97;9.07;;;;;;;-0.50;80.98;98874.38;5060833;28;20239;-72
2022/03/09 07:37:44;;;;;;;15.70;8.90;;;;;;;-0.39;80.64;98872.50;5065736;28;20224;-73
2022/03/09 07:40:11;;;;;;;14.37;9.10;;;;;;;-0.23;79.66;98883.53;5068145;28;20214;-71
2022/03/09 07:42:38;;;;;;;13.07;8.80;;;;;;;-0.14;80.41;98883.41;5067980;28;20222;-71
2022/03/09 07:45:07;;;;;;;14.87;8.97;;;;;;;-0.10;80.72;98881.56;5062832;28;20222;-73
2022/03/09 07:47:33;;;;;;;11.67;8.77;;;;;;;0.05;79.09;98890.88;5062994;28;20299;-70
2022/03/09 07:50:01;;;;;;;13.27;7.83;;;;;;;0.18;78.76;98893.25;5065985;28;20218;-69
2022/03/09 07:52:27;;;;;;;12.97;8.67;;;;;;;0.24;78.14;98893.16;5067010;28;20218;-68
2022/03/09 07:54:54;;;;;;;11.83;8.23;;;;;;;0.37;77.51;98897.25;5063947;28;20502;-68
2022/03/09 07:57:20;;;;;;;16.90;8.43;;;;;;;0.46;76.88;98904.94;5041232;28;20213;-67
2022/03/09 07:59:47;;;;;;;12.57;8.83;;;;;;;0.60;75.36;98897.72;5041381;28;20218;-68
2022/03/09 08:02:13;;;;;;;13.27;7.93;;;;;;;0.66;74.72;98907.16;5055126;28;20239;-68
2022/03/09 08:04:40;;;;;;;12.40;8.43;;;;;;;0.73;74.52;98894.00;5053760;28;20592;-68
2022/03/09 08:07:07;;;;;;;15.03;8.77;;;;;;;0.84;74.92;98896.41;5054679;28;20212;-70
2022/03/09 08:09:34;;;;;;;15.00;8.50;;;;;;;0.90;73.71;98891.97;5055720;28;20698;-70
2022/03/09 08:12:01;;;;;;;16.87;9.57;;;;;;;1.09;73.20;98893.31;5052239;28;20215;-69
2022/03/09 08:14:27;;;;;;;14.83;8.57;;;;;;;1.32;70.81;98895.44;5054374;28;20251;-69
2022/03/09 08:16:54;;;;;;;14.47;8.53;;;;;;;1.48;68.01;98891.66;5054044;28;20222;-69
2022/03/09 08:19:20;;;;;;;12.10;8.50;;;;;;;1.62;67.21;98898.28;5049234;28;20219;-71
2022/03/09 08:21:47;;;;;;;14.43;9.03;;;;;;;1.73;67.35;98887.63;5054354;28;20226;-70
2022/03/09 08:24:14;;;;;;;11.77;8.47;;;;;;;1.92;65.29;98889.78;5054499;28;20227;-70
2022/03/09 08:26:41;;;;;;;14.67;8.90;;;;;;;2.12;63.68;98889.28;5053278;28;20219;-69
2022/03/09 08:29:07;;;;;;;14.53;8.53;;;;;;;2.32;62.42;98885.31;5055660;28;20215;-69
2022/03/09 08:31:34;;;;;;;12.33;8.23;;;;;;;2.38;62.70;98889.53;5053736;28;20210;-68
2022/03/09 08:34:00;;;;;;;11.80;7.70;;;;;;;2.36;61.98;98892.19;5052921;28;20223;-69
2022/03/09 08:36:27;;;;;;;13.87;8.87;;;;;;;2.43;61.15;98893.72;5053521;28;20239;-69
2022/03/09 08:38:54;;;;;;;11.57;8.00;;;;;;;2.49;60.95;98880.53;5053864;28;20228;-70
2022/03/09 08:41:24;;;;;;;10.30;7.97;;;;;;;2.57;60.67;98881.19;5053133;28;20228;-68
2022/03/09 08:43:51;;;;;;;12.43;8.40;;;;;;;2.62;59.90;98881.94;5053879;28;20212;-68
2022/03/09 08:46:17;;;;;;;13.33;8.77;;;;;;;2.61;58.69;98882.84;5053111;28;20219;-69
2022/03/09 08:48:45;;;;;;;12.67;8.67;;;;;;;2.80;58.41;98877.97;5054707;28;20229;-70
2022/03/09 08:51:12;;;;;;;14.13;8.07;;;;;;;2.93;58.24;98874.16;5053752;28;20251;-70
2022/03/09 08:53:38;;;;;;;14.93;9.87;;;;;;;3.05;58.23;98877.28;5054008;28;20219;-69
2022/03/09 08:56:07;;;;;;;12.93;8.43;;;;;;;3.05;56.94;98882.50;5053323;28;20251;-69
2022/03/09 08:58:35;;;;;;;12.13;8.87;;;;;;;3.24;56.91;98880.25;5044201;28;20319;-69
2022/03/09 09:01:02;;;;;;;13.33;9.23;;;;;;;3.32;56.76;98866.06;5072710;28;20248;-68
2022/03/09 09:03:29;;;;;;;14.30;8.23;;;;;;;3.45;56.46;98864.81;5071700;28;20680;-69
2022/03/09 09:05:55;;;;;;;14.93;8.73;;;;;;;3.55;55.99;98866.22;5071001;28;20222;-69
2022/03/09 09:08:22;;;;;;;12.67;8.83;;;;;;;3.64;55.70;98867.72;5071324;28;20658;-69
2022/03/09 09:10:48;;;;;;;13.07;9.00;;;;;;;3.87;54.51;98868.75;5071321;28;20234;-70
2022/03/09 09:13:16;;;;;;;12.07;8.67;;;;;;;4.03;54.47;98856.88;5072938;28;20215;-70
2022/03/09 09:15:44;;;;;;;10.77;8.30;;;;;;;4.15;54.69;98856.47;5071731;28;20236;-69
2022/03/09 09:18:10;;;;;;;12.50;8.17;;;;;;;4.24;54.02;98855.31;5066017;28;20219;-68
2022/03/09 09:20:37;;;;;;;14.47;9.40;;;;;;;4.45;52.80;98854.63;5070703;28;20592;-67
2022/03/09 09:23:04;;;;;;;13.00;8.80;;;;;;;4.54;52.03;98847.34;5070760;28;20214;-70
2022/03/09 09:25:31;;;;;;;10.33;8.30;;;;;;;4.48;51.12;98847.53;5070157;28;20224;-70
2022/03/09 09:27:58;;;;;;;13.00;9.20;;;;;;;4.70;52.21;98853.72;5069823;28;20223;-68
2022/03/09 09:30:26;;;;;;;10.00;7.67;;;;;;;4.89;51.67;98844.31;5070602;28;20302;-69
2022/03/09 09:32:54;;;;;;;15.30;8.90;;;;;;;4.92;51.08;98844.22;5068498;28;20222;-68
2022/03/09 09:35:20;;;;;;;11.13;8.37;;;;;;;5.08;50.67;98850.63;5070686;28;20240;-69
2022/03/09 09:37:47;;;;;;;12.77;8.90;;;;;;;5.32;50.79;98847.09;5069321;28;20693;-68
2022/03/09 09:40:15;;;;;;;10.80;8.13;;;;;;;5.53;50.78;98848.94;5069717;28;20216;-69
2022/03/09 09:42:42;;;;;;;11.77;8.83;;;;;;;5.73;49.51;98843.78;5070585;28;20597;-69
2022/03/09 09:45:10;;;;;;;13.70;8.90;;;;;;;5.85;49.05;98850.34;5070103;28;20302;-69
2022/03/09 09:47:36;;;;;;;11.20;8.40;;;;;;;5.90;49.53;98849.25;5068731;28;20217;-69
2022/03/09 09:50:06;;;;;;;13.10;8.80;;;;;;;5.89;48.71;98847.56;5070667;28;20219;-68
2022/03/09 09:52:36;;;;;;;11.73;8.33;;;;;;;5.88;48.28;98844.97;5070738;28;20218;-68
2022/03/09 09:55:07;;;;;;;12.27;8.80;;;;;;;6.11;49.44;98835.28;5069822;28;20248;-68
2022/03/09 09:57:34;;;;;;;12.43;8.80;;;;;;;6.46;47.12;98842.56;5067760;28;20223;-67
2022/03/09 10:00:01;;;;;;;13.70;8.70;;;;;;;6.36;45.70;98838.59;5046000;28;20224;-68
2022/03/09 10:02:28;;;;;;;13.57;8.93;;;;;;;6.41;46.17;98846.31;5069932;28;20249;-69
2022/03/09 10:04:55;;;;;;;13.37;9.17;;;;;;;6.35;46.29;98836.91;5070782;28;20223;-69
2022/03/09 10:07:23;;;;;;;13.77;8.70;;;;;;;6.43;47.08;98845.34;5070123;28;20218;-68
2022/03/09 10:09:49;;;;;;;12.80;9.13;;;;;;;6.66;46.53;98839.94;5069761;28;20226;-68
2022/03/09 10:12:26;;;;;;;14.80;8.93;;;;;;;6.85;46.67;98838.22;5070659;28;20682;-68
2022/03/09 10:14:54;;;;;;;12.63;8.57;;;;;;;6.99;45.39;98849.03;5070121;28;20782;-68
2022/03/09 10:17:22;;;;;;;12.97;8.80;;;;;;;7.05;45.78;98850.53;5038276;28;20234;-68
2022/03/09 10:19:50;;;;;;;12.40;8.63;;;;;;;7.01;46.20;98847.16;5058857;28;20348;-67
2022/03/09 10:22:31;;;;;;;14.03;10.00;;;;;;;7.33;45.29;98841.34;5070638;28;20267;-66
2022/03/09 10:25:00;;;;;;;13.03;8.77;;;;;;;7.27;44.49;98846.88;5069369;28;20215;-69
2022/03/09 10:27:38;;;;;;;15.37;9.23;;;;;;;7.41;44.28;98850.59;5068608;28;20582;-68
2022/03/09 10:30:09;;;;;;;15.60;8.93;;;;;;;7.44;43.91;98845.22;5070405;28;20211;-67
2022/03/09 10:32:44;;;;;;;16.10;9.50;;;;;;;7.55;44.67;98847.34;5069276;28;20726;-67
2022/03/09 10:35:10;;;;;;;13.67;9.33;;;;;;;7.58;43.91;98849.81;5040815;28;20682;-67
2022/03/09 10:37:43;;;;;;;17.27;9.57;;;;;;;7.65;42.86;98846.00;5070148;28;20234;-67
2022/03/09 10:40:12;;;;;;;12.10;9.20;;;;;;;7.58;42.26;98848.03;5069786;28;20229;-67
2022/03/09 10:42:38;;;;;;;11.23;8.50;;;;;;;7.57;43.28;98850.75;5069789;28;20218;-67
2022/03/09 10:45:08;;;;;;;11.63;8.93;;;;;;;7.75;43.35;98857.78;5070141;28;20223;-67
2022/03/09 10:47:35;;;;;;;12.77;9.37;;;;;;;7.79;43.32;98846.22;5068992;28;20268;-67
2022/03/09 10:50:14;;;;;;;15.73;9.57;;;;;;;7.82;42.92;98851.31;5070026;28;20226;-69
2022/03/09 10:52:53;;;;;;;11.97;8.83;;;;;;;7.86;41.51;98852.88;5068255;28;20230;-67
2022/03/09 10:55:21;;;;;;;13.13;9.40;;;;;;;7.78;41.92;98855.03;5070804;28;20258;-67
2022/03/09 10:57:48;;;;;;;13.10;9.50;;;;;;;7.82;41.93;98852.19;5073721;28;20222;-68
2022/03/09 11:00:14;;;;;;;13.00;9.07;;;;;;;7.90;41.90;98842.13;5046673;28;20712;-67
2022/03/09 11:02:49;;;;;;;14.13;9.43;;;;;;;8.11;42.44;98850.78;5073517;28;20208;-68
2022/03/09 11:05:17;;;;;;;14.03;9.30;;;;;;;8.21;42.65;98845.03;5073794;28;20367;-69
2022/03/09 11:07:44;;;;;;;13.20;9.60;;;;;;;8.33;40.75;98848.88;5073906;28;20215;-67
2022/03/09 11:10:13;;;;;;;11.90;8.53;;;;;;;8.46;41.26;98844.69;5072688;28;20215;-68
2022/03/09 11:12:40;;;;;;;13.13;9.50;;;;;;;8.51;40.55;98842.69;5073988;28;20269;-67
2022/03/09 11:15:08;;;;;;;13.13;8.97;;;;;;;8.52;39.46;98844.41;5073940;28;20207;-68
2022/03/09 11:17:35;;;;;;;14.02;10.35;;;;;;;8.57;39.28;98842.38;5071028;28;20497;-69
2022/03/09 11:20:02;;;;;;;13.50;9.43;;;;;;;8.68;39.84;98842.69;5068240;28;20207;-68
2022/03/09 11:22:28;;;;;;;13.67;9.90;;;;;;;8.69;39.16;98844.41;5060253;28;20588;-68
2022/03/09 11:24:55;;;;;;;14.07;9.83;;;;;;;8.75;38.41;98841.47;5074681;28;20223;-68
2022/03/09 11:27:23;;;;;;;13.53;9.30;;;;;;;8.84;38.32;98833.06;5074459;28;20245;-69
2022/03/09 11:29:52;;;;;;;13.57;9.80;;;;;;;8.72;38.22;98836.34;5073749;28;20219;-68